Madeline — WDE3220 — position and weather

sailwx.info

Track history (hours):
 
Tides and Currents Weather Stations Pressure Air Temp Water Temp Dewpoint Dewpoint Depression Visibility Wind Speed Wind Dir Waves Ship Positions

Madeline

Owner: TUG MADELINE, LLC, NEW CASTLE, DE. More information available from US FCC via Universal Licensing System and Coast Guard Vessel Documentation Center.

Last reported at 2016-Apr-29 15:33 UTC. Time now 2016-Apr-29 15:51 UTC.
Position N 39°43' W 075°31'.

; draft 4.6 m.

Type: Tug. MMSI: 367335830.

Date/timePositionNaut miles runAvg speedWind from/ knotsBaromVisibWave heightAir tempDewpointWater temp
2016-Apr-29 15:33N 39°43' W 075°31'0 0.0
2016-Apr-29 14:33N 39°43' W 075°31'8 7.8
2016-Apr-29 13:33N 39°36' W 075°34'1010.2
2016-Apr-29 12:33N 39°26' W 075°31'1010.4
2016-Apr-29 11:33N 39°18' W 075°23'1110.7
2016-Apr-29 10:33N 39°09' W 075°15'4 1.5
2016-Apr-29 07:31N 39°05' W 075°11'1212.0
2016-Apr-29 06:32N 39°15' W 075°20'1111.6
2016-Apr-29 05:33N 39°24' W 075°29'9 9.3
2016-Apr-29 04:34N 39°33' W 075°33'0 0.1
2016-Apr-29 03:33N 39°33' W 075°33'0 0.0
2016-Apr-29 02:33N 39°33' W 075°33'0 0.0
2016-Apr-29 01:33N 39°33' W 075°33'0 0.0
2016-Apr-29 00:33N 39°33' W 075°33'0 0.0
2016-Apr-28 23:33N 39°33' W 075°33'0 0.2
2016-Apr-28 22:34N 39°33' W 075°33'1 1.3
2016-Apr-28 21:33N 39°34' W 075°33'3 2.9
2016-Apr-28 20:33N 39°37' W 075°34'1111.2
2016-Apr-28 19:33N 39°47' W 075°28'10 9.6
2016-Apr-28 18:34N 39°51' W 075°17'1 0.7
2016-Apr-28 17:33N 39°51' W 075°16'0 0.3
2016-Apr-28 16:33N 39°51' W 075°16'0 0.0
2016-Apr-28 15:33N 39°51' W 075°16'0 0.0
2016-Apr-28 14:33N 39°51' W 075°16'0 0.3
2016-Apr-28 13:33N 39°51' W 075°16'0 0.0
2016-Apr-28 12:33N 39°51' W 075°16'2 2.3
2016-Apr-28 11:33N 39°52' W 075°13'0 0.0
2016-Apr-28 10:33N 39°52' W 075°13'0 0.1
2016-Apr-28 09:34N 39°52' W 075°13'2 1.9
2016-Apr-28 08:33N 39°53' W 075°11'0 0.0
2016-Apr-28 07:33N 39°53' W 075°11'0 0.0
2016-Apr-28 06:33N 39°53' W 075°11'0 0.0
2016-Apr-28 05:33N 39°53' W 075°11'0 0.0
2016-Apr-28 04:33N 39°53' W 075°11'0 0.0
2016-Apr-28 03:33N 39°53' W 075°11'0 0.0
2016-Apr-28 02:33N 39°53' W 075°11'  
2016-Apr-25 18:33N 39°53' W 075°11'0 0.0
2016-Apr-25 17:33N 39°53' W 075°11'0 0.0
2016-Apr-25 16:33N 39°53' W 075°11'0 0.0
2016-Apr-25 15:33N 39°53' W 075°11'0 0.0
2016-Apr-25 14:33N 39°53' W 075°11'0 0.0
2016-Apr-25 13:33N 39°53' W 075°11'0 0.0
2016-Apr-25 12:33N 39°53' W 075°11'0 0.0
2016-Apr-25 11:34N 39°53' W 075°11'0 0.0
2016-Apr-25 10:33N 39°53' W 075°11'2 1.8
2016-Apr-25 09:33N 39°54' W 075°13'3 3.1
2016-Apr-25 08:33N 39°51' W 075°14'0 0.0
2016-Apr-25 07:33N 39°51' W 075°14'0 0.0
2016-Apr-25 06:33N 39°51' W 075°14'2 1.5
2016-Apr-25 05:33N 39°51' W 075°16'0 0.1
2016-Apr-25 04:34N 39°51' W 075°16'0 0.0
2016-Apr-25 03:34N 39°51' W 075°16'0 0.0
2016-Apr-25 02:34N 39°51' W 075°16'0 0.0
2016-Apr-25 01:33N 39°51' W 075°16'0 0.1
2016-Apr-25 00:34N 39°51' W 075°16'2 2.1
2016-Apr-24 23:33N 39°52' W 075°13'9 9.4
2016-Apr-24 22:33N 39°59' W 075°05'0 0.2
2016-Apr-24 21:33N 39°59' W 075°05'0 0.0
2016-Apr-24 20:33N 39°59' W 075°05'5 4.8
2016-Apr-24 19:33N 39°54' W 075°08'4 3.8
2016-Apr-24 18:33N 39°55' W 075°13'2 2.0
2016-Apr-24 17:33N 39°53' W 075°11'0 0.0
2016-Apr-24 16:33N 39°53' W 075°11'0 0.0
2016-Apr-24 15:33N 39°53' W 075°11'0 0.0
2016-Apr-24 14:33N 39°53' W 075°11'0 0.0
2016-Apr-24 13:33N 39°53' W 075°11'0 0.0
2016-Apr-24 12:33N 39°53' W 075°11'0 0.0
2016-Apr-24 11:33N 39°53' W 075°11'0 0.0
2016-Apr-24 10:34N 39°53' W 075°11'0 0.0
2016-Apr-24 09:33N 39°53' W 075°11'0 0.0
2016-Apr-24 08:33N 39°53' W 075°11'0 0.0
2016-Apr-24 07:33N 39°53' W 075°11'0 0.0
2016-Apr-24 06:33N 39°53' W 075°11'0 0.0
2016-Apr-24 05:33N 39°53' W 075°11'0 0.0
2016-Apr-24 04:33N 39°53' W 075°11'0 0.0
2016-Apr-24 03:33N 39°53' W 075°11'0 0.0
2016-Apr-24 02:34N 39°53' W 075°11'0 0.0
2016-Apr-24 01:33N 39°53' W 075°11'0 0.0
2016-Apr-24 00:33N 39°53' W 075°11'0 0.0
2016-Apr-23 23:33N 39°53' W 075°11'0 0.0
2016-Apr-23 22:33N 39°53' W 075°11'3 3.4
2016-Apr-23 21:33N 39°56' W 075°08'4 3.7
2016-Apr-23 20:34N 39°59' W 075°05'0 0.2
2016-Apr-23 19:34N 39°59' W 075°05'0 0.0
2016-Apr-23 18:33N 39°59' W 075°05'0 0.0
2016-Apr-23 17:34N 39°59' W 075°05'0 0.0
2016-Apr-23 16:34N 39°59' W 075°05'1 0.6
2016-Apr-23 15:34N 39°58' W 075°06'8 8.3
2016-Apr-23 14:34N 39°52' W 075°13'9 9.0
2016-Apr-23 13:33N 39°48' W 075°24'0 0.4
2016-Apr-23 12:33N 39°49' W 075°24'4 3.7
2016-Apr-23 11:33N 39°51' W 075°21'0 0.0
2016-Apr-23 10:33N 39°51' W 075°21'0 0.0
2016-Apr-23 09:33N 39°51' W 075°21'8 7.5
2016-Apr-23 08:33N 39°53' W 075°11'0 0.0
2016-Apr-23 07:33N 39°53' W 075°11'0 0.0
2016-Apr-23 06:33N 39°53' W 075°11'0 0.0
2016-Apr-23 05:33N 39°53' W 075°11'0 0.0
2016-Apr-23 04:33N 39°53' W 075°11'0 0.0
2016-Apr-23 03:33N 39°53' W 075°11'0 0.0
2016-Apr-23 02:33N 39°53' W 075°11'0 0.0
2016-Apr-23 01:33N 39°53' W 075°11'0 0.0
2016-Apr-23 00:33N 39°53' W 075°11'0 0.0
2016-Apr-22 23:33N 39°53' W 075°11'0 0.0
2016-Apr-22 22:33N 39°53' W 075°11'0 0.0
2016-Apr-22 21:33N 39°53' W 075°11'0 0.2
2016-Apr-22 20:33N 39°53' W 075°11'0 0.1
2016-Apr-22 19:33N 39°53' W 075°12'0 0.2
2016-Apr-22 18:33N 39°53' W 075°11'0 0.1
2016-Apr-22 17:33N 39°53' W 075°11'0 0.3
2016-Apr-22 16:33N 39°53' W 075°11'0 0.0
2016-Apr-22 15:33N 39°53' W 075°11'0 0.0
2016-Apr-22 14:33N 39°53' W 075°11'0 0.0
2016-Apr-22 13:33N 39°53' W 075°11'4 3.9
2016-Apr-22 12:34N 39°51' W 075°15'0 0.2
2016-Apr-22 11:33N 39°51' W 075°15'1 0.6
2016-Apr-22 10:34N 39°51' W 075°16'0 0.0
2016-Apr-22 09:33N 39°51' W 075°16'3 2.6
2016-Apr-22 08:34N 39°52' W 075°13'8 8.3
2016-Apr-22 07:34N 39°59' W 075°06'2 1.5
2016-Apr-22 06:34N 39°58' W 075°08'2 1.5
2016-Apr-22 05:33N 39°59' W 075°06'0 0.0
2016-Apr-22 04:34N 39°59' W 075°06'2 2.4
2016-Apr-22 03:33N 39°57' W 075°08'4 4.4
2016-Apr-22 02:33N 39°53' W 075°11'0 0.0
2016-Apr-22 01:33N 39°53' W 075°11'0 0.0
2016-Apr-22 00:33N 39°53' W 075°11'0 0.0
2016-Apr-21 23:33N 39°53' W 075°11'0 0.0
2016-Apr-21 22:33N 39°53' W 075°11'0 0.0
2016-Apr-21 21:33N 39°53' W 075°11'0 0.0
2016-Apr-21 20:33N 39°53' W 075°11'0 0.0
2016-Apr-21 19:33N 39°53' W 075°11'0 0.0
2016-Apr-21 18:33N 39°53' W 075°11'1 0.9
2016-Apr-21 17:33N 39°54' W 075°12'1 1.4
2016-Apr-21 16:33N 39°52' W 075°12'2 2.4
2016-Apr-21 15:33N 39°51' W 075°15'1 1.2
2016-Apr-21 14:33N 39°52' W 075°14'2 2.3
2016-Apr-21 13:33N 39°53' W 075°11'0 0.3
2016-Apr-21 12:33N 39°53' W 075°12'0 0.0
2016-Apr-21 11:33N 39°53' W 075°12'0 0.3
2016-Apr-21 10:33N 39°53' W 075°11'0 0.0
2016-Apr-21 09:33N 39°53' W 075°11'0 0.0
2016-Apr-21 08:33N 39°53' W 075°11'0 0.0
2016-Apr-21 07:33N 39°53' W 075°11'0 0.0
2016-Apr-21 06:33N 39°53' W 075°11'3 3.3
2016-Apr-21 05:34N 39°51' W 075°15'1212.4
2016-Apr-21 04:33N 39°45' W 075°29'3 2.8
2016-Apr-21 03:33N 39°43' W 075°31'1 0.6
2016-Apr-21 02:34N 39°43' W 075°30'1 0.9
2016-Apr-21 01:34N 39°43' W 075°31'0 0.0
2016-Apr-21 00:33N 39°43' W 075°31'0 0.0
2016-Apr-20 23:34N 39°43' W 075°31'0 0.0
2016-Apr-20 22:33N 39°43' W 075°31'0 0.0
2016-Apr-20 21:33N 39°43' W 075°31'0 0.0
2016-Apr-20 20:33N 39°43' W 075°31'0 0.3
2016-Apr-20 19:33N 39°43' W 075°31'7 7.5
2016-Apr-20 18:34N 39°37' W 075°36'2 1.8
2016-Apr-20 17:33N 39°35' W 075°35'2 2.0
2016-Apr-20 16:33N 39°34' W 075°33'1 0.7
2016-Apr-20 15:33N 39°34' W 075°34'1 1.3
2016-Apr-20 14:33N 39°35' W 075°35'0 0.0
2016-Apr-20 13:33N 39°35' W 075°35'0 0.0
2016-Apr-20 12:33N 39°35' W 075°35'0 0.0
2016-Apr-20 11:34N 39°35' W 075°35'3 2.6
2016-Apr-20 10:34N 39°38' W 075°35'9 9.5
2016-Apr-20 09:33N 39°46' W 075°29'1010.1
2016-Apr-20 08:33N 39°51' W 075°17'5 4.7
2016-Apr-20 07:33N 39°54' W 075°12'0 0.2
2016-Apr-20 06:33N 39°54' W 075°12'3 2.9
2016-Apr-20 05:33N 39°54' W 075°08'0 0.0
2016-Apr-20 04:33N 39°54' W 075°08'0 0.0
2016-Apr-20 03:33N 39°54' W 075°08'0 0.0
2016-Apr-20 02:33N 39°54' W 075°08'0 0.0
2016-Apr-20 01:33N 39°54' W 075°08'0 0.0
2016-Apr-20 00:33N 39°54' W 075°08'0 0.0
2016-Apr-19 23:33N 39°54' W 075°08'0 0.0
2016-Apr-19 22:33N 39°54' W 075°08'0 0.0
2016-Apr-19 21:33N 39°54' W 075°08'4 4.2
2016-Apr-19 20:33N 39°58' W 075°07'1 1.3
2016-Apr-19 19:33N 39°57' W 075°08'4 4.0
2016-Apr-19 18:33N 39°53' W 075°09'6 5.5
2016-Apr-19 17:33N 39°51' W 075°16'0 0.0
2016-Apr-19 16:33N 39°51' W 075°16'0 0.0
2016-Apr-19 15:33N 39°51' W 075°16'  
Track history (hours):
 
Tides and Currents Weather Stations Pressure Air Temp Water Temp Dewpoint Dewpoint Depression Visibility Wind Speed Wind Dir Waves Ship Positions

Madeline

Owner: TUG MADELINE, LLC, NEW CASTLE, DE. More information available from US FCC via Universal Licensing System and Coast Guard Vessel Documentation Center.

Last reported at 2016-Apr-29 15:33 UTC. Time now 2016-Apr-29 15:51 UTC.
Position N 39°43' W 075°31'.

; draft 4.6 m.

Type: Tug. MMSI: 367335830.

Date/timePositionNaut miles runAvg speedWind from/ knotsBaromVisibWave heightAir tempDewpointWater temp
2016-Apr-29 15:33N 39°43' W 075°31'0 0.0
2016-Apr-29 14:33N 39°43' W 075°31'8 7.8
2016-Apr-29 13:33N 39°36' W 075°34'1010.2
2016-Apr-29 12:33N 39°26' W 075°31'1010.4
2016-Apr-29 11:33N 39°18' W 075°23'1110.7
2016-Apr-29 10:33N 39°09' W 075°15'4 1.5
2016-Apr-29 07:31N 39°05' W 075°11'1212.0
2016-Apr-29 06:32N 39°15' W 075°20'1111.6
2016-Apr-29 05:33N 39°24' W 075°29'9 9.3
2016-Apr-29 04:34N 39°33' W 075°33'0 0.1
2016-Apr-29 03:33N 39°33' W 075°33'0 0.0
2016-Apr-29 02:33N 39°33' W 075°33'0 0.0
2016-Apr-29 01:33N 39°33' W 075°33'0 0.0
2016-Apr-29 00:33N 39°33' W 075°33'0 0.0
2016-Apr-28 23:33N 39°33' W 075°33'0 0.2
2016-Apr-28 22:34N 39°33' W 075°33'1 1.3
2016-Apr-28 21:33N 39°34' W 075°33'3 2.9
2016-Apr-28 20:33N 39°37' W 075°34'1111.2
2016-Apr-28 19:33N 39°47' W 075°28'10 9.6
2016-Apr-28 18:34N 39°51' W 075°17'1 0.7
2016-Apr-28 17:33N 39°51' W 075°16'0 0.3
2016-Apr-28 16:33N 39°51' W 075°16'0 0.0
2016-Apr-28 15:33N 39°51' W 075°16'0 0.0
2016-Apr-28 14:33N 39°51' W 075°16'0 0.3
2016-Apr-28 13:33N 39°51' W 075°16'0 0.0
2016-Apr-28 12:33N 39°51' W 075°16'2 2.3
2016-Apr-28 11:33N 39°52' W 075°13'0 0.0
2016-Apr-28 10:33N 39°52' W 075°13'0 0.1
2016-Apr-28 09:34N 39°52' W 075°13'2 1.9
2016-Apr-28 08:33N 39°53' W 075°11'0 0.0
2016-Apr-28 07:33N 39°53' W 075°11'0 0.0
2016-Apr-28 06:33N 39°53' W 075°11'0 0.0
2016-Apr-28 05:33N 39°53' W 075°11'0 0.0
2016-Apr-28 04:33N 39°53' W 075°11'0 0.0
2016-Apr-28 03:33N 39°53' W 075°11'0 0.0
2016-Apr-28 02:33N 39°53' W 075°11'  
2016-Apr-25 18:33N 39°53' W 075°11'0 0.0
2016-Apr-25 17:33N 39°53' W 075°11'0 0.0
2016-Apr-25 16:33N 39°53' W 075°11'0 0.0
2016-Apr-25 15:33N 39°53' W 075°11'0 0.0
2016-Apr-25 14:33N 39°53' W 075°11'0 0.0
2016-Apr-25 13:33N 39°53' W 075°11'0 0.0
2016-Apr-25 12:33N 39°53' W 075°11'0 0.0
2016-Apr-25 11:34N 39°53' W 075°11'0 0.0
2016-Apr-25 10:33N 39°53' W 075°11'2 1.8
2016-Apr-25 09:33N 39°54' W 075°13'3 3.1
2016-Apr-25 08:33N 39°51' W 075°14'0 0.0
2016-Apr-25 07:33N 39°51' W 075°14'0 0.0
2016-Apr-25 06:33N 39°51' W 075°14'2 1.5
2016-Apr-25 05:33N 39°51' W 075°16'0 0.1
2016-Apr-25 04:34N 39°51' W 075°16'0 0.0
2016-Apr-25 03:34N 39°51' W 075°16'0 0.0
2016-Apr-25 02:34N 39°51' W 075°16'0 0.0
2016-Apr-25 01:33N 39°51' W 075°16'0 0.1
2016-Apr-25 00:34N 39°51' W 075°16'2 2.1
2016-Apr-24 23:33N 39°52' W 075°13'9 9.4
2016-Apr-24 22:33N 39°59' W 075°05'0 0.2
2016-Apr-24 21:33N 39°59' W 075°05'0 0.0
2016-Apr-24 20:33N 39°59' W 075°05'5 4.8
2016-Apr-24 19:33N 39°54' W 075°08'4 3.8
2016-Apr-24 18:33N 39°55' W 075°13'2 2.0
2016-Apr-24 17:33N 39°53' W 075°11'0 0.0
2016-Apr-24 16:33N 39°53' W 075°11'0 0.0
2016-Apr-24 15:33N 39°53' W 075°11'0 0.0
2016-Apr-24 14:33N 39°53' W 075°11'0 0.0
2016-Apr-24 13:33N 39°53' W 075°11'0 0.0
2016-Apr-24 12:33N 39°53' W 075°11'0 0.0
2016-Apr-24 11:33N 39°53' W 075°11'0 0.0
2016-Apr-24 10:34N 39°53' W 075°11'0 0.0
2016-Apr-24 09:33N 39°53' W 075°11'0 0.0
2016-Apr-24 08:33N 39°53' W 075°11'0 0.0
2016-Apr-24 07:33N 39°53' W 075°11'0 0.0
2016-Apr-24 06:33N 39°53' W 075°11'0 0.0
2016-Apr-24 05:33N 39°53' W 075°11'0 0.0
2016-Apr-24 04:33N 39°53' W 075°11'0 0.0
2016-Apr-24 03:33N 39°53' W 075°11'0 0.0
2016-Apr-24 02:34N 39°53' W 075°11'0 0.0
2016-Apr-24 01:33N 39°53' W 075°11'0 0.0
2016-Apr-24 00:33N 39°53' W 075°11'0 0.0
2016-Apr-23 23:33N 39°53' W 075°11'0 0.0
2016-Apr-23 22:33N 39°53' W 075°11'3 3.4
2016-Apr-23 21:33N 39°56' W 075°08'4 3.7
2016-Apr-23 20:34N 39°59' W 075°05'0 0.2
2016-Apr-23 19:34N 39°59' W 075°05'0 0.0
2016-Apr-23 18:33N 39°59' W 075°05'0 0.0
2016-Apr-23 17:34N 39°59' W 075°05'0 0.0
2016-Apr-23 16:34N 39°59' W 075°05'1 0.6
2016-Apr-23 15:34N 39°58' W 075°06'8 8.3
2016-Apr-23 14:34N 39°52' W 075°13'9 9.0
2016-Apr-23 13:33N 39°48' W 075°24'0 0.4
2016-Apr-23 12:33N 39°49' W 075°24'4 3.7
2016-Apr-23 11:33N 39°51' W 075°21'0 0.0
2016-Apr-23 10:33N 39°51' W 075°21'0 0.0
2016-Apr-23 09:33N 39°51' W 075°21'8 7.5
2016-Apr-23 08:33N 39°53' W 075°11'0 0.0
2016-Apr-23 07:33N 39°53' W 075°11'0 0.0
2016-Apr-23 06:33N 39°53' W 075°11'0 0.0
2016-Apr-23 05:33N 39°53' W 075°11'0 0.0
2016-Apr-23 04:33N 39°53' W 075°11'0 0.0
2016-Apr-23 03:33N 39°53' W 075°11'0 0.0
2016-Apr-23 02:33N 39°53' W 075°11'0 0.0
2016-Apr-23 01:33N 39°53' W 075°11'0 0.0
2016-Apr-23 00:33N 39°53' W 075°11'0 0.0
2016-Apr-22 23:33N 39°53' W 075°11'0 0.0
2016-Apr-22 22:33N 39°53' W 075°11'0 0.0
2016-Apr-22 21:33N 39°53' W 075°11'0 0.2
2016-Apr-22 20:33N 39°53' W 075°11'0 0.1
2016-Apr-22 19:33N 39°53' W 075°12'0 0.2
2016-Apr-22 18:33N 39°53' W 075°11'0 0.1
2016-Apr-22 17:33N 39°53' W 075°11'0 0.3
2016-Apr-22 16:33N 39°53' W 075°11'0 0.0
2016-Apr-22 15:33N 39°53' W 075°11'0 0.0
2016-Apr-22 14:33N 39°53' W 075°11'0 0.0
2016-Apr-22 13:33N 39°53' W 075°11'4 3.9
2016-Apr-22 12:34N 39°51' W 075°15'0 0.2
2016-Apr-22 11:33N 39°51' W 075°15'1 0.6
2016-Apr-22 10:34N 39°51' W 075°16'0 0.0
2016-Apr-22 09:33N 39°51' W 075°16'3 2.6
2016-Apr-22 08:34N 39°52' W 075°13'8 8.3
2016-Apr-22 07:34N 39°59' W 075°06'2 1.5
2016-Apr-22 06:34N 39°58' W 075°08'2 1.5
2016-Apr-22 05:33N 39°59' W 075°06'0 0.0
2016-Apr-22 04:34N 39°59' W 075°06'2 2.4
2016-Apr-22 03:33N 39°57' W 075°08'4 4.4
2016-Apr-22 02:33N 39°53' W 075°11'0 0.0
2016-Apr-22 01:33N 39°53' W 075°11'0 0.0
2016-Apr-22 00:33N 39°53' W 075°11'0 0.0
2016-Apr-21 23:33N 39°53' W 075°11'0 0.0
2016-Apr-21 22:33N 39°53' W 075°11'0 0.0
2016-Apr-21 21:33N 39°53' W 075°11'0 0.0
2016-Apr-21 20:33N 39°53' W 075°11'0 0.0
2016-Apr-21 19:33N 39°53' W 075°11'0 0.0
2016-Apr-21 18:33N 39°53' W 075°11'1 0.9
2016-Apr-21 17:33N 39°54' W 075°12'1 1.4
2016-Apr-21 16:33N 39°52' W 075°12'2 2.4
2016-Apr-21 15:33N 39°51' W 075°15'1 1.2
2016-Apr-21 14:33N 39°52' W 075°14'2 2.3
2016-Apr-21 13:33N 39°53' W 075°11'0 0.3
2016-Apr-21 12:33N 39°53' W 075°12'0 0.0
2016-Apr-21 11:33N 39°53' W 075°12'0 0.3
2016-Apr-21 10:33N 39°53' W 075°11'0 0.0
2016-Apr-21 09:33N 39°53' W 075°11'0 0.0
2016-Apr-21 08:33N 39°53' W 075°11'0 0.0
2016-Apr-21 07:33N 39°53' W 075°11'0 0.0
2016-Apr-21 06:33N 39°53' W 075°11'3 3.3
2016-Apr-21 05:34N 39°51' W 075°15'1212.4
2016-Apr-21 04:33N 39°45' W 075°29'3 2.8
2016-Apr-21 03:33N 39°43' W 075°31'1 0.6
2016-Apr-21 02:34N 39°43' W 075°30'1 0.9
2016-Apr-21 01:34N 39°43' W 075°31'0 0.0
2016-Apr-21 00:33N 39°43' W 075°31'0 0.0
2016-Apr-20 23:34N 39°43' W 075°31'0 0.0
2016-Apr-20 22:33N 39°43' W 075°31'0 0.0
2016-Apr-20 21:33N 39°43' W 075°31'0 0.0
2016-Apr-20 20:33N 39°43' W 075°31'0 0.3
2016-Apr-20 19:33N 39°43' W 075°31'7 7.5
2016-Apr-20 18:34N 39°37' W 075°36'2 1.8
2016-Apr-20 17:33N 39°35' W 075°35'2 2.0
2016-Apr-20 16:33N 39°34' W 075°33'1 0.7
2016-Apr-20 15:33N 39°34' W 075°34'1 1.3
2016-Apr-20 14:33N 39°35' W 075°35'0 0.0
2016-Apr-20 13:33N 39°35' W 075°35'0 0.0
2016-Apr-20 12:33N 39°35' W 075°35'0 0.0
2016-Apr-20 11:34N 39°35' W 075°35'3 2.6
2016-Apr-20 10:34N 39°38' W 075°35'9 9.5
2016-Apr-20 09:33N 39°46' W 075°29'1010.1
2016-Apr-20 08:33N 39°51' W 075°17'5 4.7
2016-Apr-20 07:33N 39°54' W 075°12'0 0.2
2016-Apr-20 06:33N 39°54' W 075°12'3 2.9
2016-Apr-20 05:33N 39°54' W 075°08'0 0.0
2016-Apr-20 04:33N 39°54' W 075°08'0 0.0
2016-Apr-20 03:33N 39°54' W 075°08'0 0.0
2016-Apr-20 02:33N 39°54' W 075°08'0 0.0
2016-Apr-20 01:33N 39°54' W 075°08'0 0.0
2016-Apr-20 00:33N 39°54' W 075°08'0 0.0
2016-Apr-19 23:33N 39°54' W 075°08'0 0.0
2016-Apr-19 22:33N 39°54' W 075°08'0 0.0
2016-Apr-19 21:33N 39°54' W 075°08'4 4.2
2016-Apr-19 20:33N 39°58' W 075°07'1 1.3
2016-Apr-19 19:33N 39°57' W 075°08'4 4.0
2016-Apr-19 18:33N 39°53' W 075°09'6 5.5
2016-Apr-19 17:33N 39°51' W 075°16'0 0.0
2016-Apr-19 16:33N 39°51' W 075°16'0 0.0
2016-Apr-19 15:33N 39°51' W 075°16'  

Dump ship's entire track history